Time;durP1;ratioP1;P1;durP2;ratioP2;P2;SDS_P1;SDS_P2;PMS_P1;PMS_P2;Temp;Humidity;BMP_temperature;BMP_pressure;BME280_temperature;BME280_humidity;BME280_pressure;Samples;Min_cycle;Max_cycle;Signal;HPM_P1;HPM_P2
2023/05/03 00:00:30;;;;;;;6.22;3.67;;;;;;;;;;5016967;28;20043;-61
2023/05/03 00:02:57;;;;;;;5.88;3.90;;;;;;;;;;4999643;28;20046;-59
2023/05/03 00:05:23;;;;;;;5.78;4.07;;;;;;;;;;5032243;28;20603;-58
2023/05/03 00:07:49;;;;;;;6.80;4.18;;;;;;;;;;5017092;28;20076;-59
2023/05/03 00:10:15;;;;;;;7.28;4.65;;;;;;;;;;5002527;28;20544;-59
2023/05/03 00:12:42;;;;;;;9.88;5.07;;;;;;;;;;5000067;28;20627;-60
2023/05/03 00:15:08;;;;;;;7.93;4.28;;;;;;;;;;5003710;28;20046;-59
2023/05/03 00:17:35;;;;;;;7.55;4.40;;;;;;;;;;5005490;28;20892;-59
2023/05/03 00:20:01;;;;;;;6.68;5.00;;;;;;;;;;5006010;28;20667;-59
2023/05/03 00:22:27;;;;;;;5.43;4.32;;;;;;;;;;5011643;28;20566;-60
2023/05/03 00:24:53;;;;;;;7.32;4.70;;;;;;;;;;5005777;28;20053;-59
2023/05/03 00:27:19;;;;;;;8.48;5.55;;;;;;;;;;5005218;28;20045;-59
2023/05/03 00:29:45;;;;;;;9.45;4.32;;;;;;;;;;5009578;28;20068;-59
2023/05/03 00:32:12;;;;;;;8.30;4.80;;;;;;;;;;5012665;28;20037;-59
2023/05/03 00:34:38;;;;;;;9.27;4.72;;;;;;;;;;5012147;28;20599;-59
2023/05/03 00:37:05;;;;;;;8.48;4.85;;;;;;;;;;5010349;28;20582;-60
2023/05/03 00:39:31;;;;;;;8.25;4.35;;;;;;;;;;5012795;28;20595;-59
2023/05/03 00:41:58;;;;;;;8.20;5.18;;;;;;;;;;5011956;28;20049;-59
2023/05/03 00:44:24;;;;;;;9.35;4.25;;;;;;;;;;5008345;28;20148;-59
2023/05/03 00:46:50;;;;;;;8.93;4.88;;;;;;;;;;5006038;28;20053;-60
2023/05/03 00:49:17;;;;;;;8.55;4.55;;;;;;;;;;5011062;28;20571;-59
2023/05/03 00:51:43;;;;;;;9.75;5.07;;;;;;;;;;5013479;28;20515;-59
2023/05/03 00:54:10;;;;;;;8.93;6.22;;;;;;;;;;5012399;28;20516;-59
2023/05/03 00:56:37;;;;;;;7.75;4.97;;;;;;;;;;5014202;28;20046;-59
2023/05/03 00:59:03;;;;;;;6.95;4.97;;;;;;;;;;5010869;28;20507;-59
2023/05/03 01:01:31;;;;;;;9.13;4.78;;;;;;;;;;5011001;28;20499;-59
2023/05/03 01:03:57;;;;;;;9.05;5.05;;;;;;;;;;5010775;28;20045;-59
2023/05/03 01:06:38;;;;;;;8.95;5.53;;;;;;;;;;5008690;28;20050;-59
2023/05/03 01:09:22;;;;;;;8.23;5.05;;;;;;;;;;5019857;28;20041;-59
2023/05/03 01:12:00;;;;;;;7.32;4.90;;;;;;;;;;5011551;28;20677;-62
2023/05/03 01:14:36;;;;;;;10.73;5.00;;;;;;;;;;5011232;28;20045;-61
2023/05/03 01:17:05;;;;;;;8.00;5.72;;;;;;;;;;5042700;28;20049;-61
2023/05/03 01:19:58;;;;;;;6.25;5.10;;;;;;;;;;5017179;28;20061;-61
2023/05/03 01:22:24;;;;;;;;;;;;;;;;;;5013312;28;20054;-61
2023/05/03 01:24:51;;;;;;;7.93;5.35;;;;;;;;;;5014652;28;20342;-61
2023/05/03 01:27:18;;;;;;;12.63;5.45;;;;;;;;;;5012587;28;20048;-61
2023/05/03 01:29:44;;;;;;;11.00;5.10;;;;;;;;;;5009562;28;20058;-61
2023/05/03 01:32:15;;;;;;;10.18;6.28;;;;;;;;;;5011700;28;20050;-61
2023/05/03 01:34:47;;;;;;;9.38;5.65;;;;;;;;;;5012796;28;20042;-61
2023/05/03 01:37:13;;;;;;;8.00;5.32;;;;;;;;;;5013215;28;20037;-61
2023/05/03 01:39:49;;;;;;;9.43;5.00;;;;;;;;;;5012658;28;20050;-61
2023/05/03 01:42:16;;;;;;;10.00;6.45;;;;;;;;;;5012203;28;20544;-61
2023/05/03 01:44:42;;;;;;;9.40;6.47;;;;;;;;;;5010488;28;20451;-59
2023/05/03 01:47:09;;;;;;;9.93;5.53;;;;;;;;;;5013379;28;20424;-59
2023/05/03 01:49:35;;;;;;;9.15;5.07;;;;;;;;;;5001198;28;20185;-59
2023/05/03 01:52:01;;;;;;;9.45;5.53;;;;;;;;;;5001692;28;20034;-59
2023/05/03 01:54:27;;;;;;;10.05;5.03;;;;;;;;;;4999098;28;20042;-59
2023/05/03 01:56:54;;;;;;;9.55;5.78;;;;;;;;;;5004663;28;20041;-59
2023/05/03 01:59:20;;;;;;;7.22;5.40;;;;;;;;;;5001419;28;20797;-59
2023/05/03 02:01:46;;;;;;;8.40;6.15;;;;;;;;;;5004022;28;20046;-59
2023/05/03 02:04:12;;;;;;;8.10;5.80;;;;;;;;;;5001809;28;20045;-59
2023/05/03 02:06:38;;;;;;;8.93;5.97;;;;;;;;;;5005104;28;20482;-60
2023/05/03 02:09:04;;;;;;;10.73;7.18;;;;;;;;;;5008632;28;20757;-59
2023/05/03 02:11:30;;;;;;;8.38;5.95;;;;;;;;;;5011015;28;20129;-59
2023/05/03 02:13:56;;;;;;;9.48;5.72;;;;;;;;;;5011304;28;20547;-59
2023/05/03 02:16:22;;;;;;;10.10;6.10;;;;;;;;;;5002319;28;20626;-59
2023/05/03 02:18:48;;;;;;;7.90;5.47;;;;;;;;;;5004456;28;21182;-59
2023/05/03 02:21:15;;;;;;;7.25;5.70;;;;;;;;;;5010403;28;20580;-59
2023/05/03 02:23:41;;;;;;;10.02;6.30;;;;;;;;;;5011351;28;20038;-59
2023/05/03 02:26:07;;;;;;;9.98;5.80;;;;;;;;;;5011304;28;20057;-59
2023/05/03 02:28:33;;;;;;;8.43;5.38;;;;;;;;;;5013772;28;20042;-60
2023/05/03 02:30:59;;;;;;;6.47;5.15;;;;;;;;;;5011132;28;20549;-59
2023/05/03 02:33:25;;;;;;;7.72;5.47;;;;;;;;;;5008962;28;20038;-59
2023/05/03 02:35:51;;;;;;;8.30;5.45;;;;;;;;;;5011478;28;20050;-59
2023/05/03 02:38:17;;;;;;;7.50;4.80;;;;;;;;;;5010593;28;20045;-59
2023/05/03 02:40:44;;;;;;;7.07;5.22;;;;;;;;;;5008959;28;20544;-59
2023/05/03 02:43:10;;;;;;;10.98;6.03;;;;;;;;;;5008839;28;20042;-59
2023/05/03 02:45:36;;;;;;;8.60;6.22;;;;;;;;;;5010525;28;20180;-59
2023/05/03 02:48:02;;;;;;;9.15;6.00;;;;;;;;;;5009052;28;20081;-59
2023/05/03 02:50:28;;;;;;;12.32;6.93;;;;;;;;;;5002381;28;20096;-59
2023/05/03 02:52:54;;;;;;;9.68;5.90;;;;;;;;;;5009907;28;20038;-59
2023/05/03 02:55:21;;;;;;;10.45;5.90;;;;;;;;;;5007464;28;20148;-59
2023/05/03 02:57:47;;;;;;;7.75;5.13;;;;;;;;;;5004840;28;20060;-59
2023/05/03 03:00:14;;;;;;;8.77;6.18;;;;;;;;;;5001193;28;20041;-59
2023/05/03 03:02:40;;;;;;;11.43;6.45;;;;;;;;;;5008920;28;20061;-59
2023/05/03 03:05:07;;;;;;;9.90;5.78;;;;;;;;;;5009777;28;20038;-59
2023/05/03 03:07:33;;;;;;;10.77;6.68;;;;;;;;;;5011021;28;20535;-58
2023/05/03 03:10:00;;;;;;;12.00;6.78;;;;;;;;;;5008307;28;20050;-59
2023/05/03 03:12:27;;;;;;;8.57;5.97;;;;;;;;;;5025685;28;20076;-59
2023/05/03 03:14:54;;;;;;;11.27;6.20;;;;;;;;;;5009790;28;20049;-59
2023/05/03 03:17:20;;;;;;;10.13;5.97;;;;;;;;;;5008794;28;20752;-59
2023/05/03 03:19:46;;;;;;;10.95;7.65;;;;;;;;;;5025324;28;20056;-59
2023/05/03 03:22:12;;;;;;;12.18;7.13;;;;;;;;;;5008980;28;20149;-59
2023/05/03 03:24:38;;;;;;;9.68;5.43;;;;;;;;;;5009601;28;20046;-59
2023/05/03 03:27:04;;;;;;;8.57;5.63;;;;;;;;;;5010395;28;20149;-59
2023/05/03 03:29:31;;;;;;;9.23;5.05;;;;;;;;;;5004881;28;20053;-59
2023/05/03 03:31:58;;;;;;;11.18;6.40;;;;;;;;;;5008130;28;20068;-59
2023/05/03 03:34:24;;;;;;;8.93;5.68;;;;;;;;;;5010121;28;20092;-59
2023/05/03 03:36:50;;;;;;;10.35;5.57;;;;;;;;;;5013078;28;20537;-59
2023/05/03 03:39:16;;;;;;;9.02;5.53;;;;;;;;;;5002432;28;20042;-59
2023/05/03 03:41:43;;;;;;;12.05;6.28;;;;;;;;;;5003631;28;20042;-59
2023/05/03 03:44:09;;;;;;;13.50;6.22;;;;;;;;;;5017761;28;20065;-59
2023/05/03 03:46:36;;;;;;;7.30;5.18;;;;;;;;;;5000089;28;20035;-60
2023/05/03 03:49:02;;;;;;;8.90;5.88;;;;;;;;;;5003643;28;20036;-59
2023/05/03 03:51:28;;;;;;;9.38;6.10;;;;;;;;;;5005451;28;20528;-59
2023/05/03 03:53:54;;;;;;;8.48;5.15;;;;;;;;;;5004271;28;20524;-59
2023/05/03 03:56:20;;;;;;;9.30;5.15;;;;;;;;;;5006319;28;20675;-59
2023/05/03 03:58:47;;;;;;;7.38;4.93;;;;;;;;;;5001686;28;20133;-59
2023/05/03 04:01:13;;;;;;;7.10;5.10;;;;;;;;;;5003333;28;20058;-59
2023/05/03 04:03:39;;;;;;;7.95;4.70;;;;;;;;;;5005383;28;20084;-60
2023/05/03 04:06:05;;;;;;;9.50;5.10;;;;;;;;;;5003030;28;20850;-60
2023/05/03 04:08:31;;;;;;;8.98;5.45;;;;;;;;;;5008338;28;20507;-59
2023/05/03 04:10:57;;;;;;;30.08;9.55;;;;;;;;;;5005636;28;20558;-59
2023/05/03 04:13:23;;;;;;;30.30;8.50;;;;;;;;;;5009482;28;20052;-59
2023/05/03 04:15:54;;;;;;;34.67;8.45;;;;;;;;;;5006835;28;20665;-59
2023/05/03 04:18:21;;;;;;;9.88;5.35;;;;;;;;;;5006372;28;20116;-59
2023/05/03 04:20:47;;;;;;;10.27;4.97;;;;;;;;;;5011820;28;20043;-59
2023/05/03 04:23:13;;;;;;;10.93;5.65;;;;;;;;;;5010011;28;20074;-59
2023/05/03 04:25:47;;;;;;;9.07;5.43;;;;;;;;;;5023853;28;20041;-59
2023/05/03 04:28:13;;;;;;;9.75;5.38;;;;;;;;;;5007552;28;20077;-59
2023/05/03 04:30:40;;;;;;;8.90;4.50;;;;;;;;;;5015100;28;20042;-59
2023/05/03 04:33:06;;;;;;;8.63;5.47;;;;;;;;;;5011095;28;20046;-59
2023/05/03 04:35:33;;;;;;;7.10;4.53;;;;;;;;;;5011185;28;20042;-59
2023/05/03 04:38:00;;;;;;;12.02;6.53;;;;;;;;;;5012661;28;20590;-59
2023/05/03 04:40:26;;;;;;;7.47;5.63;;;;;;;;;;5005699;28;20188;-60
2023/05/03 04:42:52;;;;;;;14.90;5.50;;;;;;;;;;5005353;28;20114;-59
2023/05/03 04:45:19;;;;;;;9.30;6.20;;;;;;;;;;5019141;28;20671;-59
2023/05/03 04:47:46;;;;;;;10.98;5.43;;;;;;;;;;5011699;28;20061;-59
2023/05/03 04:50:13;;;;;;;13.77;6.18;;;;;;;;;;5009954;28;20128;-60
2023/05/03 04:52:39;;;;;;;10.27;6.93;;;;;;;;;;5010490;28;20038;-60
2023/05/03 04:55:06;;;;;;;9.68;5.57;;;;;;;;;;5007879;28;20113;-59
2023/05/03 04:57:33;;;;;;;7.82;5.22;;;;;;;;;;5009813;28;20042;-59
2023/05/03 04:59:59;;;;;;;10.43;5.57;;;;;;;;;;5007770;28;20085;-59
2023/05/03 05:02:25;;;;;;;18.30;6.75;;;;;;;;;;5010989;28;20042;-59
2023/05/03 05:04:52;;;;;;;10.90;5.57;;;;;;;;;;5013738;28;20046;-59
2023/05/03 05:07:18;;;;;;;9.63;4.97;;;;;;;;;;5011961;28;20065;-59
2023/05/03 05:09:44;;;;;;;8.13;5.85;;;;;;;;;;5006527;28;20532;-59
2023/05/03 05:12:10;;;;;;;10.93;5.75;;;;;;;;;;5010984;28;20049;-60
2023/05/03 05:14:36;;;;;;;11.15;4.95;;;;;;;;;;5010431;28;20057;-59
2023/05/03 05:17:02;;;;;;;11.88;6.00;;;;;;;;;;5014357;28;20072;-61
2023/05/03 05:19:28;;;;;;;8.55;5.85;;;;;;;;;;5010918;28;20111;-59
2023/05/03 05:21:55;;;;;;;16.27;6.50;;;;;;;;;;5009767;28;20183;-60
2023/05/03 05:24:21;;;;;;;10.73;5.00;;;;;;;;;;5027209;28;20539;-59
2023/05/03 05:26:48;;;;;;;11.57;6.30;;;;;;;;;;5009566;28;20097;-60
2023/05/03 05:29:14;;;;;;;10.68;5.78;;;;;;;;;;5009715;28;20066;-59
2023/05/03 05:31:40;;;;;;;10.55;5.78;;;;;;;;;;5012721;28;20053;-59
2023/05/03 05:34:06;;;;;;;14.77;7.38;;;;;;;;;;5016043;28;21898;-59
2023/05/03 05:36:32;;;;;;;10.43;6.18;;;;;;;;;;5010003;28;20038;-59
2023/05/03 05:38:58;;;;;;;11.60;7.05;;;;;;;;;;5014064;28;21731;-60
2023/05/03 05:41:25;;;;;;;11.52;6.13;;;;;;;;;;5010988;28;20924;-59
2023/05/03 05:43:52;;;;;;;13.38;5.97;;;;;;;;;;5009996;28;20576;-59
2023/05/03 05:46:20;;;;;;;9.77;5.65;;;;;;;;;;5025439;28;20634;-59
2023/05/03 05:48:46;;;;;;;10.55;6.20;;;;;;;;;;5009504;28;20053;-59
2023/05/03 05:51:12;;;;;;;10.82;6.03;;;;;;;;;;5011173;28;20050;-59
2023/05/03 05:53:38;;;;;;;13.77;6.13;;;;;;;;;;5010195;28;20050;-59
2023/05/03 05:56:05;;;;;;;12.45;5.85;;;;;;;;;;5012203;28;20033;-59
2023/05/03 05:58:31;;;;;;;12.15;6.78;;;;;;;;;;5010811;28;20167;-59
2023/05/03 06:01:00;;;;;;;12.68;6.43;;;;;;;;;;5009279;28;20156;-59
2023/05/03 06:03:26;;;;;;;10.32;5.15;;;;;;;;;;5000363;28;20058;-58
2023/05/03 06:05:52;;;;;;;19.30;6.38;;;;;;;;;;5008097;28;20037;-59
2023/05/03 06:08:18;;;;;;;14.60;6.97;;;;;;;;;;5004520;28;20042;-59
2023/05/03 06:10:44;;;;;;;14.48;7.40;;;;;;;;;;5006190;28;20120;-59
2023/05/03 06:13:10;;;;;;;27.90;6.43;;;;;;;;;;5007137;28;20053;-59
2023/05/03 06:15:36;;;;;;;10.40;6.10;;;;;;;;;;5008072;28;20479;-59
2023/05/03 06:18:03;;;;;;;12.60;5.88;;;;;;;;;;5009430;28;20539;-58
2023/05/03 06:20:29;;;;;;;12.57;4.82;;;;;;;;;;5008163;28;21107;-58
2023/05/03 06:22:55;;;;;;;12.35;6.05;;;;;;;;;;5037878;28;20057;-59
2023/05/03 06:25:21;;;;;;;10.55;5.40;;;;;;;;;;5022694;28;20135;-59
2023/05/03 06:27:47;;;;;;;10.27;6.28;;;;;;;;;;5004406;28;20475;-59
2023/05/03 06:30:13;;;;;;;11.10;6.10;;;;;;;;;;5001306;28;20049;-58
2023/05/03 06:32:41;;;;;;;12.05;7.05;;;;;;;;;;5010252;28;20444;-59
2023/05/03 06:35:08;;;;;;;13.63;5.60;;;;;;;;;;5011043;28;20045;-58
2023/05/03 06:37:34;;;;;;;10.13;6.43;;;;;;;;;;5011510;28;20045;-59
2023/05/03 06:40:00;;;;;;;10.32;6.15;;;;;;;;;;5006475;28;20054;-58
2023/05/03 06:42:27;;;;;;;11.20;5.45;;;;;;;;;;5009542;28;20046;-59
2023/05/03 06:44:53;;;;;;;11.27;5.47;;;;;;;;;;5011295;28;20442;-59
2023/05/03 06:47:21;;;;;;;13.95;6.55;;;;;;;;;;5010120;28;20034;-59
2023/05/03 06:49:48;;;;;;;9.23;5.75;;;;;;;;;;5011907;28;20541;-59
2023/05/03 06:52:14;;;;;;;13.02;6.38;;;;;;;;;;5012778;28;20516;-59
2023/05/03 06:54:40;;;;;;;11.57;6.25;;;;;;;;;;5013112;28;21152;-59
2023/05/03 06:57:06;;;;;;;12.63;6.00;;;;;;;;;;5013298;28;20046;-59
2023/05/03 06:59:32;;;;;;;8.73;5.70;;;;;;;;;;5012897;28;20122;-59
2023/05/03 07:01:58;;;;;;;11.23;6.95;;;;;;;;;;5011836;28;20177;-59
2023/05/03 07:04:25;;;;;;;13.68;6.15;;;;;;;;;;5012937;28;20041;-59
2023/05/03 07:06:51;;;;;;;14.63;6.43;;;;;;;;;;5011355;28;20037;-59
2023/05/03 07:09:17;;;;;;;10.15;6.10;;;;;;;;;;5013515;28;20084;-59
2023/05/03 07:11:48;;;;;;;10.60;6.32;;;;;;;;;;5013086;28;20208;-58
2023/05/03 07:14:14;;;;;;;13.90;6.50;;;;;;;;;;5012266;28;20042;-59
2023/05/03 07:16:40;;;;;;;14.63;6.78;;;;;;;;;;5012274;28;20038;-58
2023/05/03 07:19:07;;;;;;;16.25;6.60;;;;;;;;;;5013575;28;20485;-59
2023/05/03 07:21:33;;;;;;;11.18;5.80;;;;;;;;;;5011167;28;20049;-59
2023/05/03 07:24:00;;;;;;;9.38;5.45;;;;;;;;;;5011878;28;20543;-61
2023/05/03 07:26:26;;;;;;;9.50;5.85;;;;;;;;;;5011893;28;20042;-58
2023/05/03 07:28:52;;;;;;;7.53;5.57;;;;;;;;;;5013757;28;20042;-59
2023/05/03 07:31:19;;;;;;;9.82;5.38;;;;;;;;;;5011120;28;20053;-59
2023/05/03 07:33:45;;;;;;;15.85;6.60;;;;;;;;;;5010630;28;20068;-58
2023/05/03 07:36:11;;;;;;;7.47;5.20;;;;;;;;;;5009805;28;20116;-59
2023/05/03 07:38:37;;;;;;;8.60;4.88;;;;;;;;;;5008143;28;20595;-58
2023/05/03 07:41:03;;;;;;;13.98;6.53;;;;;;;;;;5008441;28;20543;-58
2023/05/03 07:43:30;;;;;;;12.25;5.50;;;;;;;;;;5008960;28;20683;-58
2023/05/03 07:45:56;;;;;;;10.35;5.82;;;;;;;;;;5012085;28;20508;-59
2023/05/03 07:48:22;;;;;;;8.32;5.30;;;;;;;;;;5026704;28;20046;-59
2023/05/03 07:50:48;;;;;;;11.85;5.80;;;;;;;;;;5010594;28;20042;-59
2023/05/03 07:53:14;;;;;;;17.13;6.35;;;;;;;;;;5011258;28;20034;-59
2023/05/03 07:55:41;;;;;;;10.00;5.32;;;;;;;;;;5009487;28;20041;-59
2023/05/03 07:58:07;;;;;;;10.18;6.45;;;;;;;;;;5010082;28;20046;-59
2023/05/03 08:00:33;;;;;;;8.55;5.53;;;;;;;;;;5011766;28;20106;-59
2023/05/03 08:03:02;;;;;;;9.50;5.15;;;;;;;;;;5010771;28;20030;-59
2023/05/03 08:05:28;;;;;;;13.30;5.53;;;;;;;;;;5011170;28;20524;-59
2023/05/03 08:07:54;;;;;;;7.93;5.05;;;;;;;;;;5009493;28;20492;-58
2023/05/03 08:10:20;;;;;;;11.52;5.78;;;;;;;;;;5011421;28;20571;-59
2023/05/03 08:12:47;;;;;;;10.90;6.35;;;;;;;;;;5009787;28;20042;-59
2023/05/03 08:15:13;;;;;;;8.05;5.28;;;;;;;;;;5041273;28;20061;-58
2023/05/03 08:17:40;;;;;;;10.65;5.40;;;;;;;;;;5009991;28;20112;-58
2023/05/03 08:20:07;;;;;;;10.07;5.32;;;;;;;;;;5010868;28;20053;-58
2023/05/03 08:22:35;;;;;;;9.68;4.75;;;;;;;;;;5042083;28;20669;-58
2023/05/03 08:25:03;;;;;;;8.77;5.72;;;;;;;;;;5010067;28;20435;-59
2023/05/03 08:27:29;;;;;;;11.00;5.75;;;;;;;;;;5023955;28;20050;-58
2023/05/03 08:29:55;;;;;;;7.80;5.28;;;;;;;;;;5012846;28;20077;-59
2023/05/03 08:32:23;;;;;;;9.95;4.85;;;;;;;;;;5011089;28;20038;-59
2023/05/03 08:34:50;;;;;;;10.73;4.28;;;;;;;;;;5012654;28;20591;-59
2023/05/03 08:37:16;;;;;;;8.98;5.95;;;;;;;;;;5013170;28;20038;-59
2023/05/03 08:39:42;;;;;;;10.38;5.93;;;;;;;;;;5015435;28;20100;-59
2023/05/03 08:42:08;;;;;;;7.53;4.80;;;;;;;;;;5011683;28;20845;-59
2023/05/03 08:44:42;;;;;;;11.65;5.60;;;;;;;;;;5014792;28;20117;-59
2023/05/03 08:47:08;;;;;;;9.45;4.97;;;;;;;;;;5015441;28;20570;-59
2023/05/03 08:49:34;;;;;;;9.50;4.57;;;;;;;;;;5015804;28;20038;-59
2023/05/03 08:52:02;;;;;;;9.23;4.75;;;;;;;;;;5041089;28;20104;-59
2023/05/03 08:54:29;;;;;;;8.63;4.40;;;;;;;;;;5013359;28;20042;-59
2023/05/03 08:56:55;;;;;;;7.68;4.55;;;;;;;;;;5012954;28;20395;-59
2023/05/03 08:59:21;;;;;;;13.88;5.72;;;;;;;;;;5011458;28;20061;-58
2023/05/03 09:01:47;;;;;;;8.52;5.20;;;;;;;;;;5011706;28;20046;-58
2023/05/03 09:04:13;;;;;;;12.10;4.80;;;;;;;;;;5013918;28;20042;-59
2023/05/03 09:06:40;;;;;;;12.30;5.50;;;;;;;;;;5031055;28;20120;-58
2023/05/03 09:09:07;;;;;;;8.25;4.75;;;;;;;;;;5014538;28;20850;-59
2023/05/03 09:11:33;;;;;;;9.85;4.25;;;;;;;;;;5014343;28;20117;-58
2023/05/03 09:14:09;;;;;;;12.23;4.72;;;;;;;;;;5013777;28;20049;-58
2023/05/03 09:16:35;;;;;;;8.70;5.18;;;;;;;;;;5015238;28;20468;-59
2023/05/03 09:19:03;;;;;;;10.57;4.60;;;;;;;;;;5012389;28;20559;-58
2023/05/03 09:21:30;;;;;;;9.50;4.93;;;;;;;;;;5013254;28;20046;-58
2023/05/03 09:23:57;;;;;;;7.90;4.40;;;;;;;;;;5015761;28;20124;-59
2023/05/03 09:26:35;;;;;;;9.30;5.80;;;;;;;;;;5012561;28;20045;-59
2023/05/03 09:29:04;;;;;;;7.70;4.20;;;;;;;;;;5015993;28;20042;-59
2023/05/03 09:31:31;;;;;;;6.97;4.10;;;;;;;;;;5021468;28;20080;-58
2023/05/03 09:33:58;;;;;;;10.35;4.45;;;;;;;;;;5012719;28;20041;-59
2023/05/03 09:36:26;;;;;;;5.78;3.47;;;;;;;;;;5012522;28;20135;-59
2023/05/03 09:38:52;;;;;;;10.10;4.50;;;;;;;;;;5012557;28;20073;-59
2023/05/03 09:41:38;;;;;;;10.13;3.70;;;;;;;;;;5012757;28;20042;-59
2023/05/03 09:44:05;;;;;;;6.28;4.00;;;;;;;;;;5012310;28;20046;-59
2023/05/03 09:46:31;;;;;;;9.00;5.13;;;;;;;;;;5011692;28;20042;-59
2023/05/03 09:48:58;;;;;;;7.18;4.03;;;;;;;;;;5012990;28;20046;-59
2023/05/03 09:51:24;;;;;;;6.63;3.80;;;;;;;;;;5011503;28;20104;-58
2023/05/03 09:53:50;;;;;;;6.57;5.15;;;;;;;;;;5012498;28;20123;-59
2023/05/03 09:56:19;;;;;;;5.38;3.83;;;;;;;;;;5011836;28;20527;-58
2023/05/03 09:58:46;;;;;;;9.20;4.82;;;;;;;;;;5014456;28;20064;-59
2023/05/03 10:01:13;;;;;;;8.95;4.68;;;;;;;;;;5008031;28;20513;-59
2023/05/03 10:03:42;;;;;;;7.18;3.63;;;;;;;;;;5012694;28;20155;-59
2023/05/03 10:06:21;;;;;;;7.20;3.60;;;;;;;;;;5012022;28;20112;-59
2023/05/03 10:09:04;;;;;;;8.65;4.10;;;;;;;;;;5013496;28;20100;-59
2023/05/03 10:11:32;;;;;;;5.55;3.60;;;;;;;;;;5006679;28;20530;-58
2023/05/03 10:13:58;;;;;;;9.38;4.57;;;;;;;;;;5011278;28;20413;-59
2023/05/03 10:16:32;;;;;;;8.10;3.92;;;;;;;;;;5012009;28;20046;-59
2023/05/03 10:19:04;;;;;;;8.30;4.00;;;;;;;;;;5043920;28;20042;-59
2023/05/03 10:21:44;;;;;;;7.85;3.85;;;;;;;;;;5007615;28;20050;-59
2023/05/03 10:24:14;;;;;;;8.80;4.15;;;;;;;;;;5012496;28;20133;-59
2023/05/03 10:26:41;;;;;;;7.72;3.97;;;;;;;;;;5015473;28;20044;-59
2023/05/03 10:29:26;;;;;;;9.23;4.22;;;;;;;;;;5012535;28;20112;-59
2023/05/03 10:31:52;;;;;;;10.20;3.60;;;;;;;;;;5010771;28;20100;-59
2023/05/03 10:34:25;;;;;;;5.30;3.00;;;;;;;;;;5012853;28;20058;-58
2023/05/03 10:36:55;;;;;;;5.03;3.10;;;;;;;;;;5013467;28;20097;-59
2023/05/03 10:39:21;;;;;;;8.98;3.80;;;;;;;;;;5012377;28;20049;-58
2023/05/03 10:42:17;;;;;;;4.68;2.65;;;;;;;;;;5013016;28;20085;-58
2023/05/03 10:44:50;;;;;;;3.58;2.33;;;;;;;;;;5009722;28;20046;-58
2023/05/03 10:47:16;;;;;;;6.25;3.75;;;;;;;;;;5013479;28;20046;-59
2023/05/03 10:49:43;;;;;;;4.55;3.08;;;;;;;;;;5012240;28;20044;-59
2023/05/03 10:52:27;;;;;;;6.50;3.63;;;;;;;;;;5010630;28;20073;-58
2023/05/03 10:54:53;;;;;;;6.28;2.70;;;;;;;;;;5029625;28;20638;-59
2023/05/03 10:57:20;;;;;;;6.40;3.53;;;;;;;;;;5013491;28;20042;-59
2023/05/03 10:59:47;;;;;;;6.10;2.53;;;;;;;;;;5011405;28;20046;-59
2023/05/03 11:02:16;;;;;;;4.60;2.97;;;;;;;;;;5012475;28;20053;-58
2023/05/03 11:04:44;;;;;;;5.47;2.85;;;;;;;;;;5010391;28;20756;-59
2023/05/03 11:07:11;;;;;;;5.80;3.10;;;;;;;;;;5012209;28;20046;-59
2023/05/03 11:09:37;;;;;;;8.20;3.58;;;;;;;;;;5011834;28;20052;-58
2023/05/03 11:12:04;;;;;;;7.32;3.05;;;;;;;;;;5013532;28;20893;-59
2023/05/03 11:14:30;;;;;;;7.82;3.85;;;;;;;;;;5009180;28;20161;-59
2023/05/03 11:16:56;;;;;;;6.53;2.90;;;;;;;;;;5011631;28;20981;-59
2023/05/03 11:19:24;;;;;;;6.20;2.85;;;;;;;;;;5013165;28;20052;-59
2023/05/03 11:21:51;;;;;;;6.78;2.67;;;;;;;;;;5009776;28;20042;-59
2023/05/03 11:24:17;;;;;;;3.60;2.10;;;;;;;;;;5010095;28;20056;-58
2023/05/03 11:26:43;;;;;;;5.25;2.70;;;;;;;;;;5005292;28;20037;-59
2023/05/03 11:29:10;;;;;;;4.28;2.38;;;;;;;;;;5006489;28;20379;-59
2023/05/03 11:31:36;;;;;;;4.93;2.35;;;;;;;;;;5006272;28;20048;-59
2023/05/03 11:34:02;;;;;;;6.30;3.45;;;;;;;;;;5003713;28;20045;-59
2023/05/03 11:36:29;;;;;;;7.97;3.22;;;;;;;;;;4999790;28;20443;-59
2023/05/03 11:38:56;;;;;;;5.35;2.42;;;;;;;;;;5000430;28;20045;-59
2023/05/03 11:41:22;;;;;;;4.57;3.13;;;;;;;;;;5002117;28;20046;-59
2023/05/03 11:43:49;;;;;;;6.50;3.75;;;;;;;;;;5002926;28;20889;-59
2023/05/03 11:46:25;;;;;;;4.25;2.63;;;;;;;;;;5002151;28;20097;-59
2023/05/03 11:48:51;;;;;;;4.22;2.65;;;;;;;;;;5008848;28;20084;-59
2023/05/03 11:51:24;;;;;;;5.25;3.42;;;;;;;;;;5008433;28;20046;-59
2023/05/03 11:53:50;;;;;;;5.50;2.45;;;;;;;;;;5010464;28;20128;-60
2023/05/03 11:56:19;;;;;;;5.25;3.45;;;;;;;;;;5008782;28;20141;-59
2023/05/03 11:58:52;;;;;;;4.68;3.28;;;;;;;;;;5012056;28;20188;-59
2023/05/03 12:01:21;;;;;;;4.28;2.90;;;;;;;;;;5011646;28;20094;-59
2023/05/03 12:03:48;;;;;;;3.88;2.60;;;;;;;;;;5011425;28;20042;-60
2023/05/03 12:06:14;;;;;;;8.73;3.53;;;;;;;;;;5012662;28;20093;-61
2023/05/03 12:08:40;;;;;;;7.40;3.78;;;;;;;;;;5013323;28;20053;-61
2023/05/03 12:11:06;;;;;;;4.75;3.03;;;;;;;;;;5011320;28;20041;-61
2023/05/03 12:13:35;;;;;;;4.30;3.20;;;;;;;;;;5014005;28;20062;-60
2023/05/03 12:16:02;;;;;;;5.32;3.47;;;;;;;;;;5010518;28;20042;-61
2023/05/03 12:18:44;;;;;;;5.80;3.40;;;;;;;;;;5003330;28;20042;-61
2023/05/03 12:21:11;;;;;;;;;;;;;;;;;;5005103;28;20042;-61
2023/05/03 12:23:37;;;;;;;7.97;3.67;;;;;;;;;;5005668;28;19921;-61
2023/05/03 12:26:03;;;;;;;8.35;2.83;;;;;;;;;;5005340;28;20064;-61
2023/05/03 12:28:29;;;;;;;4.18;2.65;;;;;;;;;;5005782;28;20073;-61
2023/05/03 12:30:56;;;;;;;6.93;3.30;;;;;;;;;;5004100;28;20054;-61
2023/05/03 12:33:22;;;;;;;6.68;2.83;;;;;;;;;;5006592;28;20223;-61
2023/05/03 12:35:48;;;;;;;5.05;2.80;;;;;;;;;;5042975;28;20109;-61
2023/05/03 12:38:14;;;;;;;5.22;3.03;;;;;;;;;;5015024;28;20048;-61
2023/05/03 12:40:40;;;;;;;4.30;2.90;;;;;;;;;;5012124;28;20669;-61
2023/05/03 12:43:06;;;;;;;3.83;2.65;;;;;;;;;;5015198;28;20046;-61
2023/05/03 12:45:32;;;;;;;8.65;3.55;;;;;;;;;;5011790;28;20579;-61
2023/05/03 12:47:58;;;;;;;6.70;3.35;;;;;;;;;;5013884;28;20042;-61
2023/05/03 12:50:24;;;;;;;4.90;3.20;;;;;;;;;;5012972;28;20654;-61
2023/05/03 12:52:51;;;;;;;5.93;2.85;;;;;;;;;;5012133;28;20054;-61
2023/05/03 12:55:17;;;;;;;6.10;4.30;;;;;;;;;;5011527;28;20073;-61
2023/05/03 12:57:43;;;;;;;4.78;3.33;;;;;;;;;;5011746;28;20042;-61
2023/05/03 13:00:09;;;;;;;5.45;2.88;;;;;;;;;;5015014;28;20088;-61
2023/05/03 13:02:36;;;;;;;5.57;3.08;;;;;;;;;;5014689;28;20582;-61
2023/05/03 13:05:02;;;;;;;5.70;2.78;;;;;;;;;;5014852;28;20919;-61
2023/05/03 13:07:28;;;;;;;6.55;3.63;;;;;;;;;;5014750;28;20053;-61
2023/05/03 13:09:55;;;;;;;4.15;2.80;;;;;;;;;;5016076;28;20525;-61
2023/05/03 13:12:21;;;;;;;6.10;3.65;;;;;;;;;;5014475;28;20076;-61
2023/05/03 13:14:48;;;;;;;5.38;2.90;;;;;;;;;;5016011;28;20070;-61
2023/05/03 13:17:15;;;;;;;6.85;2.83;;;;;;;;;;5012143;28;20682;-60
2023/05/03 13:19:42;;;;;;;4.43;3.10;;;;;;;;;;5015475;28;20482;-61
2023/05/03 13:22:08;;;;;;;5.28;3.25;;;;;;;;;;5014101;28;20520;-61
2023/05/03 13:24:34;;;;;;;10.20;3.92;;;;;;;;;;5015557;28;20162;-61
2023/05/03 13:27:01;;;;;;;6.28;3.17;;;;;;;;;;5015855;28;20073;-61
2023/05/03 13:29:27;;;;;;;5.68;2.97;;;;;;;;;;5013179;28;20080;-60
2023/05/03 13:31:53;;;;;;;6.32;3.88;;;;;;;;;;5016565;28;20045;-60
2023/05/03 13:34:20;;;;;;;7.78;3.58;;;;;;;;;;5014273;28;20050;-61
2023/05/03 13:36:46;;;;;;;6.50;3.90;;;;;;;;;;5014293;28;20073;-61
2023/05/03 13:39:12;;;;;;;7.55;3.05;;;;;;;;;;5012396;28;20042;-61
2023/05/03 13:41:40;;;;;;;5.00;3.20;;;;;;;;;;5013500;28;21857;-60
2023/05/03 13:44:08;;;;;;;7.72;3.13;;;;;;;;;;5012344;28;20129;-61
2023/05/03 13:46:37;;;;;;;7.50;4.10;;;;;;;;;;5013259;28;20050;-60
2023/05/03 13:49:04;;;;;;;6.47;3.50;;;;;;;;;;5014387;28;20689;-61
2023/05/03 13:51:30;;;;;;;6.57;3.42;;;;;;;;;;5027530;28;20177;-61
2023/05/03 13:53:58;;;;;;;8.52;3.90;;;;;;;;;;5007122;28;20071;-60
2023/05/03 13:56:24;;;;;;;6.35;3.20;;;;;;;;;;5012523;28;20064;-61
2023/05/03 13:58:51;;;;;;;4.32;2.67;;;;;;;;;;5043481;28;20499;-60
2023/05/03 14:01:17;;;;;;;4.82;3.45;;;;;;;;;;5012629;28;20890;-60
2023/05/03 14:03:44;;;;;;;6.60;3.53;;;;;;;;;;5014947;28;20030;-60
2023/05/03 14:06:10;;;;;;;6.10;3.58;;;;;;;;;;5013154;28;20073;-60
2023/05/03 14:08:36;;;;;;;7.47;3.10;;;;;;;;;;5011907;28;20722;-61
2023/05/03 14:11:02;;;;;;;6.85;3.08;;;;;;;;;;5013406;28;20579;-60
2023/05/03 14:13:29;;;;;;;6.32;3.55;;;;;;;;;;5013292;28;20108;-60
2023/05/03 14:15:55;;;;;;;6.45;3.35;;;;;;;;;;5013300;28;20323;-61
2023/05/03 14:18:21;;;;;;;5.00;2.92;;;;;;;;;;5009663;28;20042;-60
2023/05/03 14:20:51;;;;;;;9.82;4.13;;;;;;;;;;5041582;28;20034;-60
2023/05/03 14:23:17;;;;;;;6.38;2.88;;;;;;;;;;5011651;28;20123;-61
2023/05/03 14:25:43;;;;;;;5.60;3.17;;;;;;;;;;5013545;28;20156;-60
2023/05/03 14:28:09;;;;;;;5.65;3.75;;;;;;;;;;5014871;28;20049;-61
2023/05/03 14:30:35;;;;;;;5.05;3.17;;;;;;;;;;5009811;28;20051;-61
2023/05/03 14:33:01;;;;;;;4.97;3.10;;;;;;;;;;5013488;28;20034;-61
2023/05/03 14:35:28;;;;;;;5.50;3.05;;;;;;;;;;5014102;28;22381;-61
2023/05/03 14:37:54;;;;;;;4.40;2.78;;;;;;;;;;5013543;28;20495;-61